Idalou, Texas
Current Conditions -  °F | °C
As of 4:53 PM on Friday 19 Dec 2014 (Local Time) from KLBB Reporting Station
Broken Clouds Broken Clouds  
Wind Chill: 39°   Ceiling: 1700
Heat Index: 42°   Visibility: 10mi
Dew Point: 36°   Wind: 5mph
Humidity: 79%   Direction: 60°ENE
Pressure: 30.12"   Gusts: NA
Location:  33.67°N, 101.68°W
Report Text: KLBB 192253Z 06004KT 10SM BKN017 06/02 A3012 RMK AO2 SLP195 CIG HIR DSNT S-W T00560022
Loading
Personal Weather Stations






























Interactive Weather Map New forecast layout! Learn more

10-Day Weather Forecast

Advertisements
Track Severe Weather on mobile